createdAt,value
2022-10-05T00:00:51.370Z,6.00
2022-10-05T00:03:18.362Z,6.05
2022-10-05T00:05:46.330Z,5.82
2022-10-05T00:08:18.962Z,6.05
2022-10-05T00:10:46.776Z,6.78
2022-10-05T00:13:25.285Z,6.70
2022-10-05T00:16:16.343Z,6.50
2022-10-05T00:18:50.178Z,6.30
2022-10-05T00:21:23.405Z,6.85
2022-10-05T00:23:51.275Z,6.88
2022-10-05T00:26:24.821Z,6.43
2022-10-05T00:28:53.632Z,6.82
2022-10-05T00:31:26.678Z,7.85
2022-10-05T00:33:55.206Z,6.47
2022-10-05T00:36:22.207Z,7.65
2022-10-05T00:38:49.682Z,10.10
2022-10-05T00:41:45.695Z,7.78
2022-10-05T00:44:35.922Z,9.07
2022-10-05T00:47:18.578Z,8.15
2022-10-05T00:49:51.334Z,8.98
2022-10-05T00:52:33.445Z,9.43
2022-10-05T00:55:05.680Z,9.23
2022-10-05T00:57:50.978Z,12.43
2022-10-05T01:00:26.163Z,11.05
2022-10-05T01:03:28.829Z,11.07
2022-10-05T01:06:32.748Z,12.40
2022-10-05T01:09:11.267Z,16.25
2022-10-05T01:11:40.850Z,13.32
2022-10-05T01:14:07.711Z,21.33
2022-10-05T01:16:51.084Z,21.90
2022-10-05T01:19:21.091Z,26.27
2022-10-05T01:21:55.903Z,19.60
2022-10-05T01:24:41.164Z,23.75
2022-10-05T01:27:18.536Z,24.98
2022-10-05T01:30:02.505Z,22.45
2022-10-05T01:32:39.584Z,22.58
2022-10-05T01:35:22.122Z,21.10
2022-10-05T01:38:01.505Z,22.75
2022-10-05T01:40:44.745Z,24.52
2022-10-05T01:43:34.426Z,25.10
2022-10-05T01:46:07.562Z,23.67
2022-10-05T01:48:53.276Z,23.40
2022-10-05T01:51:37.552Z,26.80
2022-10-05T01:54:21.158Z,25.35
2022-10-05T01:57:13.063Z,25.15
2022-10-05T02:00:01.546Z,22.80
2022-10-05T02:02:31.846Z,23.27
2022-10-05T02:05:14.145Z,22.67
2022-10-05T02:07:54.861Z,21.95
2022-10-05T02:10:33.059Z,22.48
2022-10-05T02:13:35.395Z,25.27
2022-10-05T02:16:18.051Z,26.30
2022-10-05T02:18:56.939Z,26.25
2022-10-05T02:21:25.665Z,20.02
2022-10-05T02:23:57.745Z,22.37
2022-10-05T02:26:26.665Z,24.98
2022-10-05T02:29:04.339Z,23.52
2022-10-05T02:31:40.635Z,23.40
2022-10-05T02:34:23.760Z,24.33
2022-10-05T02:36:59.030Z,23.30
2022-10-05T02:39:35.867Z,24.77
2022-10-05T02:42:30.395Z,22.08
2022-10-05T02:45:03.704Z,21.30
2022-10-05T02:47:55.474Z,24.98
2022-10-05T02:50:45.457Z,20.50
2022-10-05T02:53:25.596Z,22.55
2022-10-05T02:56:09.261Z,23.23
2022-10-05T02:58:46.430Z,23.83
2022-10-05T03:01:35.952Z,24.60
2022-10-05T03:04:36.909Z,23.10
2022-10-05T03:07:16.424Z,24.23
2022-10-05T03:12:37.753Z,26.13
2022-10-05T03:16:00.018Z,23.75
2022-10-05T03:18:39.353Z,21.98
2022-10-05T03:21:45.838Z,28.33
2022-10-05T03:24:15.991Z,25.77
2022-10-05T03:27:08.935Z,24.85
2022-10-05T03:29:57.717Z,25.13
2022-10-05T03:35:23.269Z,21.65
2022-10-05T03:37:56.239Z,24.60
2022-10-05T03:40:48.988Z,24.85
2022-10-05T03:43:52.610Z,28.65
2022-10-05T03:46:53.165Z,23.50
2022-10-05T03:49:44.749Z,22.92
2022-10-05T03:52:38.760Z,22.48
2022-10-05T03:55:26.473Z,26.25
2022-10-05T03:57:58.746Z,23.85
2022-10-05T04:00:30.843Z,25.25
2022-10-05T04:03:10.296Z,26.08
2022-10-05T04:05:50.644Z,24.30
2022-10-05T04:08:36.458Z,24.92
2022-10-05T04:11:13.765Z,24.77
2022-10-05T04:13:54.470Z,24.52
2022-10-05T04:16:55.895Z,29.23
2022-10-05T04:19:52.127Z,27.48
2022-10-05T04:22:30.213Z,23.27
2022-10-05T04:25:23.959Z,24.38
2022-10-05T04:28:01.433Z,24.45
2022-10-05T04:30:30.942Z,22.98
2022-10-05T04:32:59.660Z,24.00
2022-10-05T04:35:50.457Z,22.45
2022-10-05T04:38:28.155Z,21.58
2022-10-05T04:41:14.260Z,22.35
2022-10-05T04:44:13.502Z,20.45
2022-10-05T04:47:05.388Z,19.98
2022-10-05T04:49:58.340Z,22.20
2022-10-05T04:52:40.238Z,20.20
2022-10-05T04:55:31.033Z,22.05
2022-10-05T04:58:15.026Z,25.65
2022-10-05T05:01:08.356Z,23.90
2022-10-05T05:03:57.573Z,22.95
2022-10-05T05:07:33.827Z,18.30
2022-10-05T05:10:18.017Z,19.10
2022-10-05T05:13:03.657Z,21.30
2022-10-05T05:16:05.647Z,18.08
2022-10-05T05:18:45.232Z,21.40
2022-10-05T05:21:33.309Z,20.77
2022-10-05T05:24:27.824Z,18.52
2022-10-05T05:27:01.249Z,19.80
2022-10-05T05:30:05.718Z,22.63
2022-10-05T05:32:59.461Z,23.98
2022-10-05T05:35:46.124Z,20.90
2022-10-05T05:38:21.637Z,25.83
2022-10-05T05:41:25.103Z,20.00
2022-10-05T05:44:08.610Z,21.42
2022-10-05T05:47:03.042Z,22.40
2022-10-05T05:49:48.513Z,24.38
2022-10-05T05:52:26.194Z,25.98
2022-10-05T05:55:00.153Z,23.70
2022-10-05T05:57:33.734Z,21.30
2022-10-05T06:00:16.587Z,23.52
2022-10-05T06:02:55.735Z,21.30
2022-10-05T06:05:34.503Z,18.10
2022-10-05T06:08:16.065Z,19.77
2022-10-05T06:10:57.700Z,17.63
2022-10-05T06:13:33.099Z,23.50
2022-10-05T06:16:20.002Z,18.45
2022-10-05T06:19:04.087Z,19.73
2022-10-05T06:22:22.674Z,18.73
2022-10-05T06:25:11.985Z,18.83
2022-10-05T06:28:11.945Z,22.08
2022-10-05T06:31:20.373Z,20.63
2022-10-05T06:33:54.859Z,21.65
2022-10-05T06:36:40.915Z,23.65
2022-10-05T06:39:17.427Z,24.17
2022-10-05T06:41:47.713Z,25.00
2022-10-05T06:44:22.274Z,21.08
2022-10-05T06:47:34.810Z,18.23
2022-10-05T06:50:29.588Z,20.70
2022-10-05T06:53:40.963Z,24.85
2022-10-05T06:56:16.561Z,23.58
2022-10-05T06:59:04.931Z,21.20
2022-10-05T07:01:37.914Z,23.92
2022-10-05T07:04:24.372Z,22.27
2022-10-05T07:07:10.255Z,19.38
2022-10-05T07:10:02.225Z,20.23
2022-10-05T07:12:54.433Z,21.45
2022-10-05T07:15:43.863Z,20.30
2022-10-05T07:18:12.783Z,19.42
2022-10-05T07:21:02.801Z,21.45
2022-10-05T07:23:36.059Z,19.88
2022-10-05T07:26:06.272Z,17.48
2022-10-05T07:28:49.308Z,18.88
2022-10-05T07:31:48.809Z,18.80
2022-10-05T07:37:27.144Z,17.98
2022-10-05T07:40:00.660Z,16.85
2022-10-05T07:42:52.091Z,19.27
2022-10-05T07:45:43.754Z,17.55
2022-10-05T07:48:21.651Z,20.77
2022-10-05T07:51:06.727Z,19.88
2022-10-05T07:53:41.236Z,19.42
2022-10-05T07:56:22.418Z,14.75
2022-10-05T07:59:03.123Z,19.00
2022-10-05T08:01:35.131Z,18.30
2022-10-05T08:04:11.441Z,19.02
2022-10-05T08:06:50.268Z,17.80
2022-10-05T08:09:53.783Z,14.98
2022-10-05T08:12:53.742Z,13.68
2022-10-05T08:18:00.646Z,21.50
2022-10-05T08:20:42.943Z,13.98
2022-10-05T08:23:09.931Z,16.52
2022-10-05T08:26:09.460Z,13.65
2022-10-05T08:28:54.336Z,15.45
2022-10-05T08:31:30.090Z,12.50
2022-10-05T08:34:01.222Z,11.95
2022-10-05T08:37:00.655Z,12.10
2022-10-05T08:39:34.766Z,16.27
2022-10-05T08:42:16.882Z,11.00
2022-10-05T08:45:06.082Z,11.05
2022-10-05T08:47:57.649Z,11.88
2022-10-05T08:50:33.785Z,10.88
2022-10-05T08:53:03.387Z,28.67
2022-10-05T08:55:47.374Z,14.52
2022-10-05T08:58:54.300Z,12.52
2022-10-05T09:01:35.871Z,10.60
2022-10-05T09:04:21.276Z,11.18
2022-10-05T09:07:23.640Z,11.82
2022-10-05T09:10:30.040Z,13.35
2022-10-05T09:13:09.457Z,12.52
2022-10-05T09:15:58.393Z,11.07
2022-10-05T09:19:01.176Z,10.67
2022-10-05T09:21:52.666Z,11.68
2022-10-05T09:24:28.154Z,9.88
2022-10-05T09:27:17.607Z,10.23
2022-10-05T09:30:19.642Z,10.45
2022-10-05T09:32:57.994Z,9.43
2022-10-05T09:35:49.625Z,9.30
2022-10-05T09:38:31.790Z,8.55
2022-10-05T09:41:24.937Z,8.23
2022-10-05T09:44:03.855Z,8.65
2022-10-05T09:46:37.030Z,9.27
2022-10-05T09:49:19.285Z,7.20
2022-10-05T09:52:07.764Z,6.90
2022-10-05T09:54:47.262Z,6.57
2022-10-05T09:57:33.618Z,6.90
2022-10-05T10:00:24.377Z,7.47
2022-10-05T10:03:05.948Z,7.30
2022-10-05T10:05:47.608Z,7.93
2022-10-05T10:08:27.707Z,6.93
2022-10-05T10:11:25.378Z,7.55
2022-10-05T10:14:11.648Z,6.60
2022-10-05T10:16:56.835Z,7.53
2022-10-05T10:19:48.726Z,7.57
2022-10-05T10:22:18.902Z,7.38
2022-10-05T10:25:03.133Z,6.72
2022-10-05T10:27:42.153Z,7.68
2022-10-05T10:30:39.929Z,5.95
2022-10-05T10:33:25.732Z,6.13
2022-10-05T10:36:07.007Z,6.63
2022-10-05T10:39:20.827Z,6.47
2022-10-05T10:42:12.270Z,5.97
2022-10-05T10:44:54.971Z,6.97
2022-10-05T10:47:41.179Z,5.75
2022-10-05T10:50:08.383Z,14.38
2022-10-05T10:53:12.618Z,5.32
2022-10-05T10:56:16.762Z,5.80
2022-10-05T10:59:13.082Z,7.85
2022-10-05T11:02:04.632Z,6.22
2022-10-05T11:04:58.218Z,6.50
2022-10-05T11:08:03.351Z,5.95
2022-10-05T11:10:51.583Z,6.72
2022-10-05T11:13:25.003Z,6.53
2022-10-05T11:16:19.450Z,5.85
2022-10-05T11:19:21.690Z,5.82
2022-10-05T11:21:59.190Z,5.53
2022-10-05T11:24:54.830Z,4.90
2022-10-05T11:27:50.185Z,6.80
2022-10-05T11:30:51.318Z,5.13
2022-10-05T11:33:43.422Z,5.38
2022-10-05T11:36:22.876Z,5.50
2022-10-05T11:39:26.947Z,5.30
2022-10-05T11:42:23.535Z,5.50
2022-10-05T11:45:24.421Z,5.28
2022-10-05T11:48:33.740Z,4.72
2022-10-05T11:51:35.172Z,5.57
2022-10-05T11:54:08.148Z,5.25
2022-10-05T11:56:44.797Z,5.82
2022-10-05T11:59:30.736Z,4.57
2022-10-05T12:02:25.731Z,4.67
2022-10-05T12:05:46.923Z,5.10
2022-10-05T12:08:55.911Z,5.65
2022-10-05T12:11:22.829Z,4.68
2022-10-05T12:14:04.672Z,5.88
2022-10-05T12:16:53.788Z,4.90
2022-10-05T12:19:30.047Z,4.38
2022-10-05T12:22:04.666Z,5.72
2022-10-05T12:24:37.650Z,4.88
2022-10-05T12:27:27.719Z,5.05
2022-10-05T12:30:25.245Z,5.53
2022-10-05T12:33:02.233Z,7.45
2022-10-05T12:35:49.314Z,4.97
2022-10-05T12:38:41.772Z,4.80
2022-10-05T12:41:19.705Z,5.47
2022-10-05T12:44:37.822Z,5.80
2022-10-05T12:47:24.726Z,4.63
2022-10-05T12:50:03.565Z,5.05
2022-10-05T12:52:48.600Z,5.18
2022-10-05T12:55:28.471Z,4.75
2022-10-05T12:58:16.473Z,7.30
2022-10-05T13:01:21.740Z,5.07
2022-10-05T13:04:19.495Z,4.60
2022-10-05T13:06:52.599Z,4.22
2022-10-05T13:09:48.936Z,4.88
2022-10-05T13:12:48.098Z,4.28
2022-10-05T13:15:19.661Z,4.72
2022-10-05T13:18:00.222Z,4.28
2022-10-05T13:20:38.017Z,4.10
2022-10-05T13:23:14.064Z,5.13
2022-10-05T13:25:51.909Z,4.85
2022-10-05T13:28:30.774Z,12.98
2022-10-05T13:31:18.743Z,4.43
2022-10-05T13:33:59.905Z,5.50
2022-10-05T13:36:48.001Z,5.18
2022-10-05T13:39:14.999Z,5.45
2022-10-05T13:41:52.014Z,4.20
2022-10-05T13:44:35.379Z,4.85
2022-10-05T13:47:13.588Z,4.95
2022-10-05T13:50:19.311Z,4.28
2022-10-05T13:53:14.057Z,4.55
2022-10-05T13:55:54.601Z,7.18
2022-10-05T13:58:37.027Z,5.25
2022-10-05T14:01:14.783Z,3.95
2022-10-05T14:04:24.803Z,5.80
2022-10-05T14:06:54.822Z,5.65
2022-10-05T14:09:35.101Z,5.05
2022-10-05T14:12:04.778Z,5.18
2022-10-05T14:14:34.071Z,5.60
2022-10-05T14:17:05.890Z,5.30
2022-10-05T14:19:42.208Z,4.80
2022-10-05T14:22:24.390Z,5.30
2022-10-05T14:24:56.122Z,4.60
2022-10-05T14:27:28.889Z,5.85
2022-10-05T14:29:58.126Z,5.38
2022-10-05T14:32:27.732Z,4.32
2022-10-05T14:37:56.279Z,6.20
2022-10-05T14:40:36.475Z,5.20
2022-10-05T14:43:15.513Z,5.32
2022-10-05T14:46:05.591Z,4.78
2022-10-05T14:48:42.984Z,5.60
2022-10-05T14:51:13.069Z,5.18
2022-10-05T14:53:43.685Z,4.90
2022-10-05T14:56:23.283Z,4.78
2022-10-05T15:01:36.023Z,4.63
2022-10-05T15:04:26.927Z,6.00
2022-10-05T15:07:18.619Z,6.18
2022-10-05T15:09:54.390Z,7.22
2022-10-05T15:12:49.395Z,5.63
2022-10-05T15:15:34.040Z,7.82
2022-10-05T15:18:05.986Z,8.27
2022-10-05T15:20:57.559Z,7.78
2022-10-05T15:23:38.469Z,5.68
2022-10-05T15:26:30.243Z,20.48
2022-10-05T15:29:07.176Z,7.28
2022-10-05T15:31:46.779Z,6.28
2022-10-05T15:36:54.613Z,4.50
2022-10-05T15:39:43.574Z,5.22
2022-10-05T15:42:14.763Z,4.75
2022-10-05T15:45:11.049Z,5.45
2022-10-05T15:48:18.046Z,6.57
2022-10-05T15:50:57.097Z,5.00
2022-10-05T15:53:52.619Z,5.47
2022-10-05T15:56:38.738Z,5.60
2022-10-05T15:59:20.047Z,5.70
2022-10-05T16:01:57.441Z,5.30
2022-10-05T16:04:39.869Z,6.03
2022-10-05T16:07:36.251Z,7.22
2022-10-05T16:10:21.594Z,7.70
2022-10-05T16:13:09.742Z,7.10
2022-10-05T16:15:42.937Z,7.00
2022-10-05T16:18:32.432Z,6.97
2022-10-05T16:21:05.364Z,6.97
2022-10-05T16:23:47.733Z,5.70
2022-10-05T16:26:48.972Z,5.80
2022-10-05T16:29:37.227Z,5.63
2022-10-05T16:32:16.112Z,6.65
2022-10-05T16:34:50.716Z,7.63
2022-10-05T16:37:59.673Z,6.32
2022-10-05T16:40:51.875Z,10.43
2022-10-05T16:43:21.836Z,8.43
2022-10-05T16:46:16.057Z,9.73
2022-10-05T16:48:57.546Z,5.78
2022-10-05T16:51:40.052Z,6.38
2022-10-05T16:54:25.320Z,9.07
2022-10-05T16:56:59.588Z,7.50
2022-10-05T16:59:32.506Z,7.00
2022-10-05T17:02:15.970Z,6.90
2022-10-05T17:05:10.309Z,15.90
2022-10-05T17:07:41.152Z,8.48
2022-10-05T17:10:38.734Z,11.25
2022-10-05T17:13:36.475Z,12.35
2022-10-05T17:16:25.346Z,12.93
2022-10-05T17:19:08.743Z,11.50
2022-10-05T17:21:46.216Z,9.43
2022-10-05T17:24:32.910Z,10.50
2022-10-05T17:27:23.169Z,9.93
2022-10-05T17:29:55.651Z,10.35
2022-10-05T17:32:22.592Z,11.63
2022-10-05T17:35:01.714Z,11.63
2022-10-05T17:37:35.621Z,12.77
2022-10-05T17:40:38.394Z,17.27
2022-10-05T17:43:17.301Z,14.77
2022-10-05T17:45:44.309Z,14.30
2022-10-05T17:48:12.982Z,15.20
2022-10-05T17:51:00.688Z,13.88
2022-10-05T17:54:06.878Z,12.70
2022-10-05T17:56:57.200Z,12.85
2022-10-05T17:59:46.480Z,11.13
2022-10-05T18:02:19.714Z,14.68
2022-10-05T18:05:12.857Z,11.43
2022-10-05T18:07:41.078Z,14.95
2022-10-05T18:10:13.443Z,13.70
2022-10-05T18:12:42.058Z,12.35
2022-10-05T18:15:08.951Z,13.55
2022-10-05T18:17:58.473Z,11.38
2022-10-05T18:20:28.820Z,12.40
2022-10-05T18:23:09.544Z,14.90
2022-10-05T18:26:18.137Z,12.20
2022-10-05T18:28:53.965Z,12.35
2022-10-05T18:31:39.013Z,14.32
2022-10-05T18:34:34.507Z,14.68
2022-10-05T18:37:04.074Z,13.43
2022-10-05T18:39:52.320Z,11.70
2022-10-05T18:42:38.136Z,20.15
2022-10-05T18:45:21.578Z,10.52
2022-10-05T18:48:04.113Z,12.45
2022-10-05T18:50:38.549Z,10.73
2022-10-05T18:53:11.670Z,11.77
2022-10-05T18:55:45.614Z,13.80
2022-10-05T18:58:26.133Z,13.20
2022-10-05T19:01:28.614Z,10.18
2022-10-05T19:04:09.906Z,14.00
2022-10-05T19:06:45.795Z,12.57
2022-10-05T19:09:24.181Z,11.80
2022-10-05T19:12:29.676Z,11.57
2022-10-05T19:15:22.591Z,11.30
2022-10-05T19:18:14.022Z,10.38
2022-10-05T19:20:47.702Z,12.02
2022-10-05T19:23:28.641Z,12.02
2022-10-05T19:26:07.627Z,9.02
2022-10-05T19:28:39.488Z,10.85
2022-10-05T19:31:12.234Z,8.90
2022-10-05T19:34:16.734Z,11.13
2022-10-05T19:37:08.696Z,12.65
2022-10-05T19:39:44.285Z,11.27
2022-10-05T19:42:44.735Z,11.18
2022-10-05T19:45:23.554Z,13.60
2022-10-05T19:48:05.583Z,8.98
2022-10-05T19:50:34.645Z,8.68
2022-10-05T19:53:08.325Z,8.73
2022-10-05T19:55:39.824Z,11.73
2022-10-05T19:58:23.453Z,11.15
2022-10-05T20:00:57.858Z,8.93
2022-10-05T20:03:32.921Z,8.60
2022-10-05T20:06:07.275Z,8.75
2022-10-05T20:08:48.534Z,8.50
2022-10-05T20:11:16.973Z,37.13
2022-10-05T20:13:45.488Z,18.83
2022-10-05T20:16:34.216Z,8.80
2022-10-05T20:19:23.764Z,9.68
2022-10-05T20:21:58.942Z,9.55
2022-10-05T20:24:29.926Z,8.68
2022-10-05T20:27:08.699Z,8.55
2022-10-05T20:29:43.495Z,9.63
2022-10-05T20:32:13.570Z,11.23
2022-10-05T20:34:42.429Z,8.35
2022-10-05T20:37:11.623Z,8.38
2022-10-05T20:39:40.094Z,9.07
2022-10-05T20:42:10.318Z,8.75
2022-10-05T20:44:38.181Z,8.80
2022-10-05T20:47:09.690Z,9.93
2022-10-05T20:49:38.670Z,11.48
2022-10-05T20:52:10.094Z,8.77
2022-10-05T20:54:38.924Z,12.55
2022-10-05T20:57:06.668Z,8.98
2022-10-05T20:59:35.228Z,10.02
2022-10-05T21:02:03.950Z,8.95
2022-10-05T21:04:42.874Z,8.65
2022-10-05T21:07:10.274Z,11.35
2022-10-05T21:09:38.622Z,10.00
2022-10-05T21:12:05.739Z,8.80
2022-10-05T21:14:34.569Z,10.63
2022-10-05T21:17:02.493Z,10.35
2022-10-05T21:19:30.099Z,9.43
2022-10-05T21:22:02.657Z,9.73
2022-10-05T21:24:29.712Z,8.38
2022-10-05T21:26:57.694Z,10.93
2022-10-05T21:29:24.820Z,9.25
2022-10-05T21:31:52.204Z,8.32
2022-10-05T21:34:19.315Z,8.93
2022-10-05T21:36:46.415Z,8.35
2022-10-05T21:41:49.502Z,10.10
2022-10-05T21:44:17.001Z,10.35
2022-10-05T21:46:44.116Z,10.82
2022-10-05T21:49:15.042Z,8.15
2022-10-05T21:51:45.023Z,7.97
2022-10-05T21:54:15.570Z,7.85
2022-10-05T21:56:46.031Z,8.70
2022-10-05T21:59:16.889Z,8.57
2022-10-05T22:01:43.899Z,11.98
2022-10-05T22:04:10.863Z,9.20
2022-10-05T22:06:38.047Z,9.60
2022-10-05T22:09:06.192Z,10.32
2022-10-05T22:11:33.676Z,11.20
2022-10-05T22:14:03.690Z,8.43
2022-10-05T22:16:34.905Z,9.50
2022-10-05T22:19:05.269Z,8.00
2022-10-05T22:21:34.334Z,7.55
2022-10-05T22:24:02.890Z,7.68
2022-10-05T22:26:30.317Z,7.20
2022-10-05T22:28:57.435Z,9.85
2022-10-05T22:31:24.521Z,7.97
2022-10-05T22:33:51.688Z,8.32
2022-10-05T22:36:19.177Z,7.13
2022-10-05T22:38:47.723Z,7.28
2022-10-05T22:41:16.598Z,7.22
2022-10-05T22:43:43.828Z,7.85
2022-10-05T22:46:12.572Z,8.52
2022-10-05T22:48:40.455Z,8.73
2022-10-05T22:51:07.927Z,8.45
2022-10-05T22:53:35.528Z,6.90
2022-10-05T22:56:10.770Z,6.97
2022-10-05T22:58:38.465Z,7.45
2022-10-05T23:01:08.030Z,7.65
2022-10-05T23:03:35.560Z,9.38
2022-10-05T23:06:11.222Z,7.05
2022-10-05T23:08:39.717Z,6.70
2022-10-05T23:11:09.123Z,7.50
2022-10-05T23:13:36.489Z,8.75
2022-10-05T23:16:12.582Z,7.90
2022-10-05T23:18:40.393Z,7.35
2022-10-05T23:21:08.698Z,7.50
2022-10-05T23:23:37.593Z,6.85
2022-10-05T23:26:05.758Z,7.18
2022-10-05T23:28:34.441Z,8.95
2022-10-05T23:31:03.927Z,7.40
2022-10-05T23:33:31.310Z,7.70
2022-10-05T23:36:07.190Z,8.10
2022-10-05T23:38:35.261Z,7.45
2022-10-05T23:41:09.122Z,7.75
2022-10-05T23:43:36.963Z,7.47
2022-10-05T23:46:05.382Z,7.35
2022-10-05T23:48:33.265Z,7.55
2022-10-05T23:51:00.739Z,8.40
2022-10-05T23:53:27.765Z,7.97
2022-10-05T23:55:55.651Z,7.38
2022-10-05T23:58:23.357Z,7.35
